createdAt,value
2019-03-10T00:00:35.031Z,98276.50
2019-03-10T00:03:07.090Z,98266.42
2019-03-10T00:05:38.662Z,98261.14
2019-03-10T00:08:10.251Z,98265.02
2019-03-10T00:10:41.828Z,98261.34
2019-03-10T00:13:13.420Z,98254.91
2019-03-10T00:15:45.016Z,98250.23
2019-03-10T00:18:19.412Z,98253.25
2019-03-10T00:20:50.994Z,98242.91
2019-03-10T00:23:22.571Z,98239.19
2019-03-10T00:25:54.141Z,98234.31
2019-03-10T00:28:25.703Z,98234.25
2019-03-10T00:30:57.291Z,98221.57
2019-03-10T00:33:28.954Z,98217.98
2019-03-10T00:36:00.532Z,98212.72
2019-03-10T00:39:10.606Z,98215.72
2019-03-10T00:42:29.790Z,98201.52
2019-03-10T00:45:54.845Z,98198.61
2019-03-10T00:49:37.621Z,98185.29
2019-03-10T00:52:31.951Z,98182.06
2019-03-10T00:55:04.469Z,98161.71
2019-03-10T00:57:36.033Z,98160.30
2019-03-10T01:00:15.197Z,98162.09
2019-03-10T01:02:46.763Z,98164.83
2019-03-10T01:05:20.364Z,98159.38
2019-03-10T01:07:51.927Z,98169.27
2019-03-10T01:10:23.492Z,98164.59
2019-03-10T01:12:55.296Z,98157.00
2019-03-10T01:15:27.250Z,98151.06
2019-03-10T01:18:00.445Z,98145.23
2019-03-10T01:20:32.285Z,98139.74
2019-03-10T01:23:03.881Z,98124.41
2019-03-10T01:25:35.446Z,98113.38
2019-03-10T01:28:07.013Z,98110.77
2019-03-10T01:31:06.526Z,98108.05
2019-03-10T01:34:26.159Z,98122.78
2019-03-10T01:36:57.702Z,98112.34
2019-03-10T01:39:29.288Z,98113.06
2019-03-10T01:42:00.835Z,98117.56
2019-03-10T01:44:32.415Z,98111.31
2019-03-10T01:47:03.969Z,98105.18
2019-03-10T01:49:35.605Z,98088.94
2019-03-10T01:52:07.188Z,98080.13
2019-03-10T01:54:40.355Z,98080.77
2019-03-10T01:57:11.892Z,98080.89
2019-03-10T01:59:43.471Z,98067.89
2019-03-10T02:02:15.040Z,98062.39
2019-03-10T02:04:49.453Z,98053.38
2019-03-10T02:07:21.011Z,98047.82
2019-03-10T02:09:52.695Z,98041.67
2019-03-10T02:12:24.264Z,98042.27
2019-03-10T02:14:55.806Z,98041.16
2019-03-10T02:17:27.375Z,98035.37
2019-03-10T02:19:58.936Z,98030.48
2019-03-10T02:22:32.073Z,98008.18
2019-03-10T02:25:03.629Z,98002.73
2019-03-10T02:27:35.181Z,98004.89
2019-03-10T02:30:08.425Z,98008.06
2019-03-10T02:32:39.987Z,97997.77
2019-03-10T02:35:11.595Z,97986.05
2019-03-10T02:37:44.614Z,97980.81
2019-03-10T02:40:16.193Z,97968.95
2019-03-10T02:42:47.749Z,97954.09
2019-03-10T02:45:19.300Z,97958.75
2019-03-10T02:47:50.864Z,97956.85
2019-03-10T02:50:22.469Z,97952.45
2019-03-10T02:52:54.001Z,97953.16
2019-03-10T02:55:25.568Z,97938.91
2019-03-10T02:57:57.169Z,97932.72
2019-03-10T03:00:28.699Z,97924.48
2019-03-10T03:03:00.273Z,97920.45
2019-03-10T03:05:31.819Z,97910.73
2019-03-10T03:08:04.366Z,97900.30
2019-03-10T03:10:35.916Z,97896.27
2019-03-10T03:13:07.472Z,97880.11
2019-03-10T03:15:41.527Z,97875.71
2019-03-10T03:18:13.097Z,97863.96
2019-03-10T03:20:44.653Z,97858.62
2019-03-10T03:23:16.218Z,97854.95
2019-03-10T03:25:47.781Z,97848.31
2019-03-10T03:28:19.333Z,97834.88
2019-03-10T03:30:50.901Z,97830.02
2019-03-10T03:33:22.639Z,97827.90
2019-03-10T03:36:28.367Z,97807.00
2019-03-10T03:39:31.689Z,97831.46
2019-03-10T03:42:03.248Z,97825.64
2019-03-10T03:44:34.805Z,97823.84
2019-03-10T03:47:06.384Z,97821.47
2019-03-10T03:49:37.992Z,97820.17
2019-03-10T03:52:09.557Z,97810.69
2019-03-10T03:54:43.865Z,97818.44
2019-03-10T03:57:15.418Z,97809.90
2019-03-10T03:59:50.113Z,97797.20
2019-03-10T04:02:49.365Z,97795.18
2019-03-10T04:05:20.926Z,97794.52
2019-03-10T04:07:52.491Z,97782.94
2019-03-10T04:10:24.070Z,97780.22
2019-03-10T04:12:55.633Z,97776.67
2019-03-10T04:15:27.187Z,97770.50
2019-03-10T04:18:00.417Z,97762.03
2019-03-10T04:20:31.997Z,97755.85
2019-03-10T04:23:03.548Z,97757.82
2019-03-10T04:25:35.146Z,97757.34
2019-03-10T04:28:06.702Z,97756.97
2019-03-10T04:30:40.335Z,97753.05
2019-03-10T04:33:11.879Z,97746.91
2019-03-10T04:35:43.463Z,97744.42
2019-03-10T04:38:15.017Z,97732.80
2019-03-10T04:40:49.330Z,97721.52
2019-03-10T04:43:20.896Z,97719.02
2019-03-10T04:45:52.465Z,97711.20
2019-03-10T04:48:24.022Z,97708.92
2019-03-10T04:50:55.607Z,97711.66
2019-03-10T04:53:27.149Z,97704.20
2019-03-10T04:56:04.092Z,97692.22
2019-03-10T04:58:38.735Z,97686.45
2019-03-10T05:01:10.316Z,97679.34
2019-03-10T05:03:41.881Z,97677.71
2019-03-10T05:06:13.436Z,97667.66
2019-03-10T05:08:45.000Z,97664.01
2019-03-10T05:11:16.553Z,97652.39
2019-03-10T05:13:51.125Z,97634.15
2019-03-10T05:16:22.679Z,97622.98
2019-03-10T05:18:54.236Z,97611.03
2019-03-10T05:21:25.794Z,97608.06
2019-03-10T05:23:59.848Z,97599.06
2019-03-10T05:26:32.759Z,97597.75
2019-03-10T05:29:04.321Z,97586.63
2019-03-10T05:31:35.877Z,97577.62
2019-03-10T05:34:07.473Z,97570.05
2019-03-10T05:36:39.016Z,97543.40
2019-03-10T05:39:10.581Z,97549.33
2019-03-10T05:41:42.114Z,97548.73
2019-03-10T05:44:13.678Z,97543.18
2019-03-10T05:46:45.325Z,97555.98
2019-03-10T05:49:16.895Z,97507.38
2019-03-10T05:51:48.547Z,97534.27
2019-03-10T05:54:20.106Z,97571.68
2019-03-10T05:56:51.679Z,97536.05
2019-03-10T05:59:23.221Z,97502.16
2019-03-10T06:01:54.862Z,97481.77
2019-03-10T06:04:26.396Z,97479.41
2019-03-10T06:06:57.962Z,97567.16
2019-03-10T06:09:29.501Z,97511.72
2019-03-10T06:12:02.264Z,97484.99
2019-03-10T06:14:33.868Z,97469.31
2019-03-10T06:17:05.444Z,97449.55
2019-03-10T06:19:37.000Z,97494.74
2019-03-10T06:22:08.586Z,97507.90
2019-03-10T06:24:40.132Z,97484.19
2019-03-10T06:27:11.735Z,97463.95
2019-03-10T06:29:44.866Z,97474.14
2019-03-10T06:32:18.097Z,97455.44
2019-03-10T06:34:49.767Z,97459.45
2019-03-10T06:37:26.038Z,97468.59
2019-03-10T06:39:57.706Z,97461.14
2019-03-10T06:42:32.625Z,97459.86
2019-03-10T06:45:05.372Z,97442.22
2019-03-10T06:47:36.927Z,97442.22
2019-03-10T06:50:09.388Z,97428.51
2019-03-10T06:52:40.969Z,97408.84
2019-03-10T06:55:12.603Z,97408.82
2019-03-10T06:57:44.162Z,97395.56
2019-03-10T07:00:17.674Z,97390.73
2019-03-10T07:02:49.387Z,97383.76
2019-03-10T07:05:20.956Z,97398.70
2019-03-10T07:07:54.120Z,97393.37
2019-03-10T07:10:25.690Z,97399.04
2019-03-10T07:12:57.237Z,97396.07
2019-03-10T07:15:30.316Z,97392.05
2019-03-10T07:18:01.907Z,97383.39
2019-03-10T07:20:34.597Z,97388.25
2019-03-10T07:23:08.428Z,97387.89
2019-03-10T07:25:41.315Z,97379.95
2019-03-10T07:28:33.773Z,97382.53
2019-03-10T07:31:16.868Z,97375.77
2019-03-10T07:34:00.532Z,97384.86
2019-03-10T07:36:58.095Z,97383.80
2019-03-10T07:39:45.788Z,97377.28
2019-03-10T07:42:29.909Z,97372.27
2019-03-10T07:45:20.457Z,97367.55
2019-03-10T07:48:09.749Z,97373.21
2019-03-10T07:51:00.193Z,97381.89
2019-03-10T07:54:09.037Z,97389.22
2019-03-10T07:57:08.534Z,97383.19
2019-03-10T07:59:54.746Z,97378.10
2019-03-10T08:03:06.227Z,97371.25
2019-03-10T08:05:58.309Z,97370.52
2019-03-10T08:08:46.268Z,97377.41
2019-03-10T08:11:39.492Z,97367.43
2019-03-10T08:14:32.954Z,97365.75
2019-03-10T08:17:24.591Z,97371.45
2019-03-10T08:20:07.705Z,97384.33
2019-03-10T08:23:13.243Z,97383.27
2019-03-10T08:26:00.922Z,97390.60
2019-03-10T08:28:54.397Z,97389.05
2019-03-10T08:31:35.064Z,97390.31
2019-03-10T08:34:28.442Z,97390.19
2019-03-10T08:37:28.287Z,97387.44
2019-03-10T08:40:22.997Z,97381.37
2019-03-10T08:43:24.973Z,97380.79
2019-03-10T08:46:15.416Z,97374.83
2019-03-10T08:49:02.649Z,97372.20
2019-03-10T08:51:53.101Z,97369.22
2019-03-10T08:54:31.754Z,97364.77
2019-03-10T08:57:31.576Z,97356.61
2019-03-10T09:00:37.407Z,97363.20
2019-03-10T09:03:16.741Z,97362.01
2019-03-10T09:06:09.881Z,97367.72
2019-03-10T09:09:01.089Z,97367.34
2019-03-10T09:11:53.290Z,97363.41
2019-03-10T09:14:43.724Z,97360.77
2019-03-10T09:17:46.309Z,97363.36
2019-03-10T09:20:42.580Z,97359.87
2019-03-10T09:23:45.422Z,97354.75
2019-03-10T09:26:36.217Z,97354.69
2019-03-10T09:29:38.565Z,97357.73
2019-03-10T09:32:28.978Z,97354.02
2019-03-10T09:35:17.936Z,97347.80
2019-03-10T09:37:55.966Z,97350.13
2019-03-10T09:40:49.178Z,97343.23
2019-03-10T09:43:30.792Z,97329.52
2019-03-10T09:46:09.764Z,97332.26
2019-03-10T09:48:58.879Z,97331.95
2019-03-10T09:51:40.584Z,97316.14
2019-03-10T09:54:32.488Z,97314.83
2019-03-10T09:57:21.866Z,97319.21
2019-03-10T10:00:06.751Z,97318.13
2019-03-10T10:02:55.919Z,97310.64
2019-03-10T10:05:51.354Z,97310.64
2019-03-10T10:08:47.960Z,97319.59
2019-03-10T10:11:41.521Z,97330.55
2019-03-10T10:14:29.042Z,97315.98
2019-03-10T10:17:12.785Z,97306.30
2019-03-10T10:20:03.274Z,97310.77
2019-03-10T10:22:54.328Z,97313.34
2019-03-10T10:25:40.938Z,97312.22
2019-03-10T10:28:21.753Z,97315.11
2019-03-10T10:31:14.067Z,97301.36
2019-03-10T10:34:10.735Z,97309.29
2019-03-10T10:37:01.212Z,97304.14
2019-03-10T10:39:49.200Z,97298.14
2019-03-10T10:42:39.346Z,97299.91
2019-03-10T10:45:36.980Z,97284.81
2019-03-10T10:48:36.576Z,97277.78
2019-03-10T10:51:20.607Z,97285.55
2019-03-10T10:54:17.138Z,97287.08
2019-03-10T10:57:19.879Z,97281.08
2019-03-10T11:00:16.452Z,97272.41
2019-03-10T11:03:07.826Z,97271.63
2019-03-10T11:06:10.563Z,97268.55
2019-03-10T11:08:59.623Z,97285.98
2019-03-10T11:11:46.346Z,97282.32
2019-03-10T11:14:39.718Z,97281.84
2019-03-10T11:17:31.556Z,97281.59
2019-03-10T11:20:20.684Z,97269.92
2019-03-10T11:23:14.453Z,97275.16
2019-03-10T11:26:00.897Z,97263.53
2019-03-10T11:28:54.090Z,97247.05
2019-03-10T11:31:38.095Z,97256.55
2019-03-10T11:34:19.817Z,97249.23
2019-03-10T11:37:08.757Z,97241.34
2019-03-10T11:39:47.266Z,97227.64
2019-03-10T11:42:36.367Z,97218.66
2019-03-10T11:45:30.643Z,97214.13
2019-03-10T11:48:13.491Z,97217.81
2019-03-10T11:50:57.757Z,97215.23
2019-03-10T11:53:44.964Z,97216.61
2019-03-10T11:56:25.626Z,97188.24
2019-03-10T11:59:10.129Z,97204.14
2019-03-10T12:02:15.231Z,97186.02
2019-03-10T12:05:08.815Z,97183.23
2019-03-10T12:08:05.604Z,97178.69
2019-03-10T12:10:37.248Z,97184.25
2019-03-10T12:13:08.939Z,97177.17
2019-03-10T12:15:40.536Z,97185.06
2019-03-10T12:18:12.357Z,97210.70
2019-03-10T12:20:47.102Z,97185.80
2019-03-10T12:23:19.000Z,97201.52
2019-03-10T12:25:50.615Z,97182.27
2019-03-10T12:28:22.223Z,97186.63
2019-03-10T12:30:53.806Z,97181.55
2019-03-10T12:33:25.458Z,97168.06
2019-03-10T12:35:57.288Z,97171.69
2019-03-10T12:38:28.887Z,97151.68
2019-03-10T12:41:00.465Z,97151.66
2019-03-10T12:43:32.050Z,97156.75
2019-03-10T12:46:03.641Z,97158.73
2019-03-10T12:48:35.286Z,97145.42
2019-03-10T12:51:06.964Z,97144.30
2019-03-10T12:53:38.555Z,97148.44
2019-03-10T12:56:10.143Z,97115.73
2019-03-10T12:58:41.721Z,97158.81
2019-03-10T13:01:13.320Z,97131.34
2019-03-10T13:03:44.981Z,97143.18
2019-03-10T13:06:16.656Z,97137.08
2019-03-10T13:08:48.289Z,97164.95
2019-03-10T13:11:19.912Z,97155.28
2019-03-10T13:13:51.556Z,97151.27
2019-03-10T13:16:23.142Z,97167.98
2019-03-10T13:18:54.786Z,97184.71
2019-03-10T13:21:26.472Z,97217.44
2019-03-10T13:23:58.051Z,97195.61
2019-03-10T13:26:32.165Z,97243.23
2019-03-10T13:29:05.539Z,97236.18
2019-03-10T13:31:38.217Z,97250.83
2019-03-10T13:34:09.842Z,97233.78
2019-03-10T13:36:41.475Z,97255.78
2019-03-10T13:39:13.244Z,97256.02
2019-03-10T13:41:45.366Z,97218.56
2019-03-10T13:44:16.932Z,97264.63
2019-03-10T13:46:48.713Z,97252.84
2019-03-10T13:49:20.297Z,97263.20
2019-03-10T13:51:51.975Z,97254.81
2019-03-10T13:54:23.736Z,97245.58
2019-03-10T13:56:58.468Z,97265.28
2019-03-10T13:59:35.843Z,97266.77
2019-03-10T14:02:07.562Z,97265.90
2019-03-10T14:04:39.492Z,97254.88
2019-03-10T14:07:19.098Z,97254.03
2019-03-10T14:09:50.837Z,97254.66
2019-03-10T14:12:22.446Z,97268.03
2019-03-10T14:14:54.134Z,97265.47
2019-03-10T14:17:25.736Z,97271.19
2019-03-10T14:19:58.521Z,97276.17
2019-03-10T14:22:31.487Z,97298.56
2019-03-10T14:25:03.085Z,97262.61
2019-03-10T14:27:34.768Z,97281.95
2019-03-10T14:30:08.682Z,97276.27
2019-03-10T14:32:43.402Z,97293.81
2019-03-10T14:35:15.554Z,97303.01
2019-03-10T14:37:47.183Z,97313.13
2019-03-10T14:40:18.932Z,97303.62
2019-03-10T14:42:50.620Z,97325.30
2019-03-10T14:45:22.373Z,97322.72
2019-03-10T14:47:54.267Z,97315.09
2019-03-10T14:50:25.859Z,97287.20
2019-03-10T14:52:57.562Z,97323.02
2019-03-10T14:55:29.590Z,97303.17
2019-03-10T14:58:03.997Z,97301.70
2019-03-10T15:00:35.644Z,97314.52
2019-03-10T15:03:07.250Z,97330.19
2019-03-10T15:05:38.939Z,97331.55
2019-03-10T15:08:12.268Z,97339.89
2019-03-10T15:10:43.823Z,97347.43
2019-03-10T15:13:15.460Z,97330.71
2019-03-10T15:15:47.069Z,97343.34
2019-03-10T15:18:18.684Z,97360.62
2019-03-10T15:20:50.311Z,97365.32
2019-03-10T15:23:21.940Z,97374.27
2019-03-10T15:25:53.563Z,97410.17
2019-03-10T15:28:25.181Z,97392.67
2019-03-10T15:30:56.854Z,97377.12
2019-03-10T15:33:28.433Z,97405.91
2019-03-10T15:36:00.077Z,97420.36
2019-03-10T15:38:34.433Z,97413.83
2019-03-10T15:41:08.298Z,97425.94
2019-03-10T15:43:39.931Z,97433.06
2019-03-10T15:46:11.546Z,97444.67
2019-03-10T15:48:49.619Z,97439.80
2019-03-10T15:51:23.387Z,97432.34
2019-03-10T15:53:58.823Z,97457.13
2019-03-10T15:56:33.367Z,97447.72
2019-03-10T15:59:10.970Z,97466.72
2019-03-10T16:01:46.128Z,97459.34
2019-03-10T16:04:24.691Z,97439.00
2019-03-10T16:06:56.481Z,97463.75
2019-03-10T16:09:28.124Z,97482.81
2019-03-10T16:12:01.323Z,97473.45
2019-03-10T16:14:32.915Z,97479.59
2019-03-10T16:17:04.478Z,97476.67
2019-03-10T16:19:42.661Z,97488.48
2019-03-10T16:22:14.328Z,97492.83
2019-03-10T16:24:48.737Z,97488.64
2019-03-10T16:27:22.770Z,97516.18
2019-03-10T16:29:59.137Z,97515.47
2019-03-10T16:32:34.655Z,97519.14
2019-03-10T16:35:07.955Z,97522.71
2019-03-10T16:37:43.698Z,97543.80
2019-03-10T16:40:18.961Z,97559.19
2019-03-10T16:42:50.572Z,97555.66
2019-03-10T16:45:22.380Z,97558.12
2019-03-10T16:47:57.760Z,97561.67
2019-03-10T16:50:29.674Z,97562.43
2019-03-10T16:53:01.380Z,97575.06
2019-03-10T16:55:34.801Z,97577.78
2019-03-10T16:58:08.007Z,97591.78
2019-03-10T17:00:40.780Z,97614.83
2019-03-10T17:03:19.199Z,97625.09
2019-03-10T17:05:52.010Z,97613.45
2019-03-10T17:08:24.738Z,97630.25
2019-03-10T17:11:00.561Z,97599.44
2019-03-10T17:13:32.202Z,97626.73
2019-03-10T17:16:06.437Z,97642.80
2019-03-10T17:18:39.153Z,97639.77
2019-03-10T17:21:14.018Z,97661.30
2019-03-10T17:23:45.668Z,97655.96
2019-03-10T17:26:18.400Z,97649.49
2019-03-10T17:28:51.391Z,97694.67
2019-03-10T17:31:23.020Z,97715.74
2019-03-10T17:33:56.382Z,97705.66
2019-03-10T17:36:29.608Z,97707.53
2019-03-10T17:39:02.609Z,97718.35
2019-03-10T17:41:39.426Z,97716.11
2019-03-10T17:44:11.047Z,97705.86
2019-03-10T17:46:42.651Z,97718.35
2019-03-10T17:49:14.287Z,97717.66
2019-03-10T17:51:57.024Z,97716.34
2019-03-10T17:54:31.706Z,97708.02
2019-03-10T17:57:03.296Z,97719.66
2019-03-10T17:59:34.944Z,97697.57
2019-03-10T18:02:09.172Z,97704.47
2019-03-10T18:04:41.622Z,97711.97
2019-03-10T18:07:16.257Z,97732.05
2019-03-10T18:09:50.265Z,97731.70
2019-03-10T18:12:21.986Z,97730.02
2019-03-10T18:14:53.582Z,97734.64
2019-03-10T18:17:30.592Z,97723.61
2019-03-10T18:20:03.979Z,97739.41
2019-03-10T18:22:37.882Z,97739.89
2019-03-10T18:25:09.906Z,97752.01
2019-03-10T18:27:41.591Z,97776.33
2019-03-10T18:30:16.737Z,97783.36
2019-03-10T18:32:48.328Z,97780.27
2019-03-10T18:35:21.284Z,97779.20
2019-03-10T18:37:52.873Z,97794.88
2019-03-10T18:40:24.454Z,97799.05
2019-03-10T18:42:56.183Z,97813.16
2019-03-10T18:45:27.781Z,97807.69
2019-03-10T18:47:59.357Z,97857.78
2019-03-10T18:50:36.432Z,97904.38
2019-03-10T18:53:09.117Z,97952.74
2019-03-10T18:55:41.813Z,97900.95
2019-03-10T18:58:13.407Z,97897.06
2019-03-10T19:00:45.025Z,97911.63
2019-03-10T19:03:17.902Z,97906.92
2019-03-10T19:05:50.826Z,97913.56
2019-03-10T19:08:24.748Z,97931.56
2019-03-10T19:10:56.365Z,97925.94
2019-03-10T19:13:27.979Z,97928.41
2019-03-10T19:16:02.538Z,97933.66
2019-03-10T19:18:35.879Z,97942.13
2019-03-10T19:21:07.496Z,97955.26
2019-03-10T19:23:39.124Z,97960.96
2019-03-10T19:26:12.060Z,97960.59
2019-03-10T19:28:46.308Z,97970.17
2019-03-10T19:31:17.939Z,97967.19
2019-03-10T19:33:50.681Z,97963.36
2019-03-10T19:36:23.344Z,97987.41
2019-03-10T19:38:57.701Z,97975.55
2019-03-10T19:41:29.316Z,97984.86
2019-03-10T19:44:01.010Z,97995.27
2019-03-10T19:46:34.541Z,98002.11
2019-03-10T19:49:06.156Z,98017.09
2019-03-10T19:51:37.779Z,98010.69
2019-03-10T19:54:11.727Z,98007.85
2019-03-10T19:56:43.331Z,98019.27
2019-03-10T19:59:19.297Z,98012.86
2019-03-10T20:01:59.925Z,98014.12
2019-03-10T20:04:34.594Z,98030.21
2019-03-10T20:07:06.257Z,98003.77
2019-03-10T20:09:39.963Z,98020.77
2019-03-10T20:12:12.944Z,98030.92
2019-03-10T20:14:46.943Z,98020.63
2019-03-10T20:17:18.553Z,98032.42
2019-03-10T20:19:55.576Z,98041.08
2019-03-10T20:22:30.562Z,98040.22
2019-03-10T20:25:03.805Z,98048.94
2019-03-10T20:27:35.470Z,98053.12
2019-03-10T20:30:08.887Z,98062.58
2019-03-10T20:32:40.707Z,98065.17
2019-03-10T20:35:12.674Z,98083.42
2019-03-10T20:37:45.323Z,98097.05
2019-03-10T20:40:20.337Z,98101.42
2019-03-10T20:42:51.997Z,98111.92
2019-03-10T20:45:28.217Z,98112.56
2019-03-10T20:48:02.874Z,98117.03
2019-03-10T20:50:34.486Z,98110.91
2019-03-10T20:53:10.079Z,98122.80
2019-03-10T20:55:43.432Z,98110.08
2019-03-10T20:58:19.581Z,98139.69
2019-03-10T21:00:51.020Z,98151.66
2019-03-10T21:03:22.654Z,98150.09
2019-03-10T21:05:54.354Z,98152.88
2019-03-10T21:08:29.336Z,98139.60
2019-03-10T21:11:00.905Z,98149.80
2019-03-10T21:13:32.492Z,98153.23
2019-03-10T21:16:05.181Z,98161.04
2019-03-10T21:18:38.197Z,98172.89
2019-03-10T21:21:16.207Z,98179.39
2019-03-10T21:23:48.925Z,98172.33
2019-03-10T21:26:28.852Z,98181.98
2019-03-10T21:29:04.373Z,98170.30
2019-03-10T21:31:36.069Z,98196.37
2019-03-10T21:34:14.821Z,98201.74
2019-03-10T21:36:47.872Z,98210.57
2019-03-10T21:39:19.461Z,98216.98
2019-03-10T21:41:52.980Z,98219.07
2019-03-10T21:44:26.989Z,98222.70
2019-03-10T21:47:01.517Z,98226.25
2019-03-10T21:49:33.142Z,98247.66
2019-03-10T21:52:07.080Z,98223.31
2019-03-10T21:54:43.092Z,98239.69
2019-03-10T21:57:14.716Z,98228.91
2019-03-10T21:59:47.593Z,98249.65
2019-03-10T22:02:21.316Z,98249.69
2019-03-10T22:04:54.088Z,98258.56
2019-03-10T22:07:28.496Z,98258.99
2019-03-10T22:10:02.644Z,98266.36
2019-03-10T22:12:38.814Z,98270.69
2019-03-10T22:15:16.404Z,98276.31
2019-03-10T22:17:53.047Z,98284.97
2019-03-10T22:20:30.851Z,98285.87
2019-03-10T22:23:02.430Z,98284.70
2019-03-10T22:25:34.012Z,98284.97
2019-03-10T22:28:05.749Z,98300.29
2019-03-10T22:30:42.343Z,98296.48
2019-03-10T22:33:17.031Z,98290.98
2019-03-10T22:35:48.589Z,98292.02
2019-03-10T22:38:20.246Z,98291.55
2019-03-10T22:40:56.081Z,98306.05
2019-03-10T22:43:29.126Z,98290.17
2019-03-10T22:46:03.689Z,98297.52
2019-03-10T22:48:38.292Z,98306.23
2019-03-10T22:51:09.932Z,98308.87
2019-03-10T22:53:45.368Z,98305.50
2019-03-10T22:56:19.716Z,98300.86
2019-03-10T22:58:58.756Z,98319.61
2019-03-10T23:01:33.189Z,98316.78
2019-03-10T23:04:08.590Z,98318.81
2019-03-10T23:06:40.249Z,98317.34
2019-03-10T23:09:15.285Z,98324.91
2019-03-10T23:11:46.932Z,98341.41
2019-03-10T23:14:21.309Z,98336.47
2019-03-10T23:16:52.851Z,98339.80
2019-03-10T23:19:24.434Z,98330.24
2019-03-10T23:21:55.995Z,98344.39
2019-03-10T23:24:30.893Z,98351.02
2019-03-10T23:27:03.501Z,98356.38
2019-03-10T23:29:35.097Z,98361.30
2019-03-10T23:32:06.646Z,98359.37
2019-03-10T23:34:45.830Z,98367.33
2019-03-10T23:37:17.401Z,98362.49
2019-03-10T23:39:50.571Z,98369.68
2019-03-10T23:42:27.906Z,98374.09
2019-03-10T23:45:00.864Z,98390.09
2019-03-10T23:47:35.226Z,98370.66
2019-03-10T23:50:07.719Z,98384.59
2019-03-10T23:52:42.060Z,98376.25
2019-03-10T23:55:14.093Z,98375.44
2019-03-10T23:57:45.641Z,98378.04
